sensor_id;sensor_type;location;lat;lon;timestamp;temperature;humidity
37678;DHT22;23517;50.390;8.616;2024-03-23T00:54:21;6.60;99.90
37678;DHT22;23517;50.390;8.616;2024-03-23T00:56:47;6.70;99.90
37678;DHT22;23517;50.390;8.616;2024-03-23T00:59:12;6.70;99.90
37678;DHT22;23517;50.390;8.616;2024-03-23T01:01:39;6.60;1.00
37678;DHT22;23517;50.390;8.616;2024-03-23T01:04:09;6.40;99.90
37678;DHT22;23517;50.390;8.616;2024-03-23T01:06:35;6.40;99.90
37678;DHT22;23517;50.390;8.616;2024-03-23T01:09:01;6.30;99.90
37678;DHT22;23517;50.390;8.616;2024-03-23T01:11:28;6.30;1.00
37678;DHT22;23517;50.390;8.616;2024-03-23T01:13:54;6.40;1.00
37678;DHT22;23517;50.390;8.616;2024-03-23T01:16:21;6.40;99.90
37678;DHT22;23517;50.390;8.616;2024-03-23T01:18:49;6.50;99.90
37678;DHT22;23517;50.390;8.616;2024-03-23T01:21:16;6.60;99.90
37678;DHT22;23517;50.390;8.616;2024-03-23T01:23:42;6.60;1.00
37678;DHT22;23517;50.390;8.616;2024-03-23T01:26:08;6.70;99.90
37678;DHT22;23517;50.390;8.616;2024-03-23T01:28:34;6.70;99.90
37678;DHT22;23517;50.390;8.616;2024-03-23T01:31:01;6.60;99.90
37678;DHT22;23517;50.390;8.616;2024-03-23T01:33:28;6.70;48.40
37678;DHT22;23517;50.390;8.616;2024-03-23T01:35:53;6.70;57.40
37678;DHT22;23517;50.390;8.616;2024-03-23T01:38:19;6.70;74.00
37678;DHT22;23517;50.390;8.616;2024-03-23T01:40:46;6.80;99.90
37678;DHT22;23517;50.390;8.616;2024-03-23T01:43:12;6.80;99.90
37678;DHT22;23517;50.390;8.616;2024-03-23T01:45:38;6.90;1.00
37678;DHT22;23517;50.390;8.616;2024-03-23T01:48:04;6.90;99.90
37678;DHT22;23517;50.390;8.616;2024-03-23T01:50:31;7.00;99.90
37678;DHT22;23517;50.390;8.616;2024-03-23T01:53:02;7.10;99.90
37678;DHT22;23517;50.390;8.616;2024-03-23T01:55:29;7.20;99.90
37678;DHT22;23517;50.390;8.616;2024-03-23T01:57:56;7.20;99.90
37678;DHT22;23517;50.390;8.616;2024-03-23T02:00:23;7.20;81.90
37678;DHT22;23517;50.390;8.616;2024-03-23T02:02:49;7.30;99.90
37678;DHT22;23517;50.390;8.616;2024-03-23T02:05:15;7.30;99.90
37678;DHT22;23517;50.390;8.616;2024-03-23T02:07:42;7.20;1.00
37678;DHT22;23517;50.390;8.616;2024-03-23T02:10:15;7.30;1.00
37678;DHT22;23517;50.390;8.616;2024-03-23T02:12:41;7.30;99.90
37678;DHT22;23517;50.390;8.616;2024-03-23T02:15:08;7.40;99.90
37678;DHT22;23517;50.390;8.616;2024-03-23T02:17:35;7.40;99.90
37678;DHT22;23517;50.390;8.616;2024-03-23T02:20:04;7.40;41.90
37678;DHT22;23517;50.390;8.616;2024-03-23T02:22:38;7.50;99.90
37678;DHT22;23517;50.390;8.616;2024-03-23T02:25:06;7.60;99.90
37678;DHT22;23517;50.390;8.616;2024-03-23T02:27:33;7.50;1.00
37678;DHT22;23517;50.390;8.616;2024-03-23T02:30:07;7.50;99.90
37678;DHT22;23517;50.390;8.616;2024-03-23T02:32:34;7.50;99.90
37678;DHT22;23517;50.390;8.616;2024-03-23T02:35:01;7.60;99.90
37678;DHT22;23517;50.390;8.616;2024-03-23T02:37:28;7.60;99.90
37678;DHT22;23517;50.390;8.616;2024-03-23T02:39:54;7.60;99.90
37678;DHT22;23517;50.390;8.616;2024-03-23T02:42:20;7.70;99.90
37678;DHT22;23517;50.390;8.616;2024-03-23T02:44:46;7.70;99.90
37678;DHT22;23517;50.390;8.616;2024-03-23T02:47:12;7.70;1.00
37678;DHT22;23517;50.390;8.616;2024-03-23T02:49:38;7.70;1.00
37678;DHT22;23517;50.390;8.616;2024-03-23T02:52:04;7.70;1.00
37678;DHT22;23517;50.390;8.616;2024-03-23T02:54:30;7.70;99.90
37678;DHT22;23517;50.390;8.616;2024-03-23T02:56:57;7.70;99.90
37678;DHT22;23517;50.390;8.616;2024-03-23T02:59:23;7.70;99.90
37678;DHT22;23517;50.390;8.616;2024-03-23T03:01:50;7.70;99.90
37678;DHT22;23517;50.390;8.616;2024-03-23T03:04:17;7.70;1.00
37678;DHT22;23517;50.390;8.616;2024-03-23T03:06:48;7.80;1.00
37678;DHT22;23517;50.390;8.616;2024-03-23T03:09:15;7.80;99.90
37678;DHT22;23517;50.390;8.616;2024-03-23T03:11:41;7.80;1.00
37678;DHT22;23517;50.390;8.616;2024-03-23T03:14:07;7.80;10.50
37678;DHT22;23517;50.390;8.616;2024-03-23T03:16:33;7.90;99.90
37678;DHT22;23517;50.390;8.616;2024-03-23T03:18:59;7.90;99.90
37678;DHT22;23517;50.390;8.616;2024-03-23T03:21:26;8.00;99.90
37678;DHT22;23517;50.390;8.616;2024-03-23T03:23:52;8.00;1.00
37678;DHT22;23517;50.390;8.616;2024-03-23T03:26:18;8.00;1.00
37678;DHT22;23517;50.390;8.616;2024-03-23T03:28:47;8.10;1.00
37678;DHT22;23517;50.390;8.616;2024-03-23T03:31:20;8.10;1.00
37678;DHT22;23517;50.390;8.616;2024-03-23T03:33:46;8.10;1.00
37678;DHT22;23517;50.390;8.616;2024-03-23T03:36:12;8.10;1.00
37678;DHT22;23517;50.390;8.616;2024-03-23T03:38:38;8.20;1.00
37678;DHT22;23517;50.390;8.616;2024-03-23T03:41:04;8.20;1.00
37678;DHT22;23517;50.390;8.616;2024-03-23T03:43:32;8.20;22.50
37678;DHT22;23517;50.390;8.616;2024-03-23T03:45:59;8.20;61.40
37678;DHT22;23517;50.390;8.616;2024-03-23T03:48:27;8.20;99.90
37678;DHT22;23517;50.390;8.616;2024-03-23T03:50:54;8.20;99.90
37678;DHT22;23517;50.390;8.616;2024-03-23T03:53:20;8.20;99.90
37678;DHT22;23517;50.390;8.616;2024-03-23T03:55:46;8.30;58.70
37678;DHT22;23517;50.390;8.616;2024-03-23T03:58:12;8.30;55.90
37678;DHT22;23517;50.390;8.616;2024-03-23T04:00:38;8.40;99.90
37678;DHT22;23517;50.390;8.616;2024-03-23T04:03:06;8.50;99.90
37678;DHT22;23517;50.390;8.616;2024-03-23T04:05:32;8.50;99.90
37678;DHT22;23517;50.390;8.616;2024-03-23T04:07:58;8.60;99.90
37678;DHT22;23517;50.390;8.616;2024-03-23T04:10:27;8.60;99.90
37678;DHT22;23517;50.390;8.616;2024-03-23T04:12:53;8.70;99.90
37678;DHT22;23517;50.390;8.616;2024-03-23T04:15:19;8.70;99.90
37678;DHT22;23517;50.390;8.616;2024-03-23T04:17:45;8.70;1.00
37678;DHT22;23517;50.390;8.616;2024-03-23T04:20:11;8.60;1.00
37678;DHT22;23517;50.390;8.616;2024-03-23T04:22:40;8.50;99.90
37678;DHT22;23517;50.390;8.616;2024-03-23T04:25:06;8.50;1.00
37678;DHT22;23517;50.390;8.616;2024-03-23T04:27:38;8.40;99.90
37678;DHT22;23517;50.390;8.616;2024-03-23T04:30:05;8.30;48.50
37678;DHT22;23517;50.390;8.616;2024-03-23T04:32:37;8.30;1.00
37678;DHT22;23517;50.390;8.616;2024-03-23T04:35:03;8.10;99.90
37678;DHT22;23517;50.390;8.616;2024-03-23T04:37:33;8.10;99.90
37678;DHT22;23517;50.390;8.616;2024-03-23T04:40:00;8.00;99.90
37678;DHT22;23517;50.390;8.616;2024-03-23T04:42:27;7.90;1.00
37678;DHT22;23517;50.390;8.616;2024-03-23T04:44:53;7.90;1.00
37678;DHT22;23517;50.390;8.616;2024-03-23T04:47:19;7.80;1.00
37678;DHT22;23517;50.390;8.616;2024-03-23T04:49:46;7.80;1.00
37678;DHT22;23517;50.390;8.616;2024-03-23T04:52:12;7.80;1.00
37678;DHT22;23517;50.390;8.616;2024-03-23T04:54:38;7.70;1.00
37678;DHT22;23517;50.390;8.616;2024-03-23T04:57:08;7.60;1.00
37678;DHT22;23517;50.390;8.616;2024-03-23T04:59:35;7.60;1.00
37678;DHT22;23517;50.390;8.616;2024-03-23T05:02:01;7.50;99.90
37678;DHT22;23517;50.390;8.616;2024-03-23T05:04:28;7.50;99.90
37678;DHT22;23517;50.390;8.616;2024-03-23T05:06:54;7.50;99.90
37678;DHT22;23517;50.390;8.616;2024-03-23T05:09:22;7.50;1.00
37678;DHT22;23517;50.390;8.616;2024-03-23T05:11:47;7.50;99.90
37678;DHT22;23517;50.390;8.616;2024-03-23T05:14:14;7.50;99.90
37678;DHT22;23517;50.390;8.616;2024-03-23T05:16:40;7.50;99.90
37678;DHT22;23517;50.390;8.616;2024-03-23T05:19:06;7.50;99.90
37678;DHT22;23517;50.390;8.616;2024-03-23T05:21:32;7.50;1.00
37678;DHT22;23517;50.390;8.616;2024-03-23T05:24:00;7.50;1.00
37678;DHT22;23517;50.390;8.616;2024-03-23T05:26:26;7.60;1.00
37678;DHT22;23517;50.390;8.616;2024-03-23T05:28:52;7.50;1.00
37678;DHT22;23517;50.390;8.616;2024-03-23T05:31:25;7.60;1.00
37678;DHT22;23517;50.390;8.616;2024-03-23T05:33:51;7.60;99.90
37678;DHT22;23517;50.390;8.616;2024-03-23T05:36:18;7.60;1.00
37678;DHT22;23517;50.390;8.616;2024-03-23T05:38:44;7.60;1.00
37678;DHT22;23517;50.390;8.616;2024-03-23T05:41:10;7.50;99.90
37678;DHT22;23517;50.390;8.616;2024-03-23T05:43:36;7.40;99.90
37678;DHT22;23517;50.390;8.616;2024-03-23T05:46:05;7.40;99.90
37678;DHT22;23517;50.390;8.616;2024-03-23T05:48:31;7.30;99.90
37678;DHT22;23517;50.390;8.616;2024-03-23T05:50:59;7.30;1.00
37678;DHT22;23517;50.390;8.616;2024-03-23T05:53:26;7.40;99.90
37678;DHT22;23517;50.390;8.616;2024-03-23T05:55:59;7.30;99.90
37678;DHT22;23517;50.390;8.616;2024-03-23T05:58:26;7.30;99.90
37678;DHT22;23517;50.390;8.616;2024-03-23T06:00:57;7.30;1.00
37678;DHT22;23517;50.390;8.616;2024-03-23T06:03:28;7.20;1.00
37678;DHT22;23517;50.390;8.616;2024-03-23T06:05:56;7.20;1.40
37678;DHT22;23517;50.390;8.616;2024-03-23T06:08:22;7.10;99.90
37678;DHT22;23517;50.390;8.616;2024-03-23T06:10:49;7.00;99.90
37678;DHT22;23517;50.390;8.616;2024-03-23T06:13:16;7.00;99.90
37678;DHT22;23517;50.390;8.616;2024-03-23T06:15:43;7.00;99.90
37678;DHT22;23517;50.390;8.616;2024-03-23T06:18:11;7.00;99.90
37678;DHT22;23517;50.390;8.616;2024-03-23T06:20:37;7.00;1.00
37678;DHT22;23517;50.390;8.616;2024-03-23T06:23:03;7.00;1.00
37678;DHT22;23517;50.390;8.616;2024-03-23T06:25:30;7.00;1.00
37678;DHT22;23517;50.390;8.616;2024-03-23T06:27:58;7.00;1.00
37678;DHT22;23517;50.390;8.616;2024-03-23T06:30:24;6.90;1.00
37678;DHT22;23517;50.390;8.616;2024-03-23T06:33:00;6.80;79.50
37678;DHT22;23517;50.390;8.616;2024-03-23T06:35:29;6.70;99.90
37678;DHT22;23517;50.390;8.616;2024-03-23T06:37:57;6.60;99.90
37678;DHT22;23517;50.390;8.616;2024-03-23T06:40:24;6.60;99.90
37678;DHT22;23517;50.390;8.616;2024-03-23T06:42:52;6.60;99.90
37678;DHT22;23517;50.390;8.616;2024-03-23T06:45:20;6.60;91.30
37678;DHT22;23517;50.390;8.616;2024-03-23T06:47:49;6.60;1.00
37678;DHT22;23517;50.390;8.616;2024-03-23T06:50:16;6.70;1.00
37678;DHT22;23517;50.390;8.616;2024-03-23T06:52:42;6.80;99.90
37678;DHT22;23517;50.390;8.616;2024-03-23T06:55:08;6.90;99.90
37678;DHT22;23517;50.390;8.616;2024-03-23T06:57:34;7.10;1.00
37678;DHT22;23517;50.390;8.616;2024-03-23T07:00:00;7.10;1.00
37678;DHT22;23517;50.390;8.616;2024-03-23T07:02:28;7.20;1.00
37678;DHT22;23517;50.390;8.616;2024-03-23T07:04:56;7.20;99.90
37678;DHT22;23517;50.390;8.616;2024-03-23T07:07:22;7.30;99.90
37678;DHT22;23517;50.390;8.616;2024-03-23T07:09:48;7.50;99.90
37678;DHT22;23517;50.390;8.616;2024-03-23T07:12:14;7.60;44.40
37678;DHT22;23517;50.390;8.616;2024-03-23T07:14:40;7.70;1.00
37678;DHT22;23517;50.390;8.616;2024-03-23T07:17:08;7.90;1.00
37678;DHT22;23517;50.390;8.616;2024-03-23T07:19:34;8.00;1.00
37678;DHT22;23517;50.390;8.616;2024-03-23T07:21:59;8.20;1.00
37678;DHT22;23517;50.390;8.616;2024-03-23T07:24:25;8.40;1.00
37678;DHT22;23517;50.390;8.616;2024-03-23T07:26:52;8.50;1.00
37678;DHT22;23517;50.390;8.616;2024-03-23T07:29:22;8.60;1.00
37678;DHT22;23517;50.390;8.616;2024-03-23T07:31:48;8.70;1.00
37678;DHT22;23517;50.390;8.616;2024-03-23T07:34:16;9.00;99.90
37678;DHT22;23517;50.390;8.616;2024-03-23T07:36:42;9.90;99.90
37678;DHT22;23517;50.390;8.616;2024-03-23T07:39:08;10.00;99.90
37678;DHT22;23517;50.390;8.616;2024-03-23T07:41:34;10.00;99.90
37678;DHT22;23517;50.390;8.616;2024-03-23T07:44:01;10.00;99.90
37678;DHT22;23517;50.390;8.616;2024-03-23T07:46:29;9.60;99.90
37678;DHT22;23517;50.390;8.616;2024-03-23T07:48:55;9.50;99.90
37678;DHT22;23517;50.390;8.616;2024-03-23T07:51:22;9.50;99.90
37678;DHT22;23517;50.390;8.616;2024-03-23T07:53:49;9.70;99.90
37678;DHT22;23517;50.390;8.616;2024-03-23T07:56:15;9.90;99.90
37678;DHT22;23517;50.390;8.616;2024-03-23T07:58:43;12.90;99.90
37678;DHT22;23517;50.390;8.616;2024-03-23T08:01:10;15.60;1.00
37678;DHT22;23517;50.390;8.616;2024-03-23T08:03:42;16.10;1.00
37678;DHT22;23517;50.390;8.616;2024-03-23T08:06:19;16.30;1.00
37678;DHT22;23517;50.390;8.616;2024-03-23T08:08:49;16.60;1.00
37678;DHT22;23517;50.390;8.616;2024-03-23T08:11:34;17.20;1.00
37678;DHT22;23517;50.390;8.616;2024-03-23T08:14:00;19.20;1.00
37678;DHT22;23517;50.390;8.616;2024-03-23T08:16:27;17.80;1.00
37678;DHT22;23517;50.390;8.616;2024-03-23T08:18:55;16.90;1.00
37678;DHT22;23517;50.390;8.616;2024-03-23T08:21:22;16.00;1.00
37678;DHT22;23517;50.390;8.616;2024-03-23T08:23:48;14.50;1.00
37678;DHT22;23517;50.390;8.616;2024-03-23T08:26:16;13.00;1.00
37678;DHT22;23517;50.390;8.616;2024-03-23T08:28:43;12.20;1.00
37678;DHT22;23517;50.390;8.616;2024-03-23T08:31:10;11.40;1.00
37678;DHT22;23517;50.390;8.616;2024-03-23T08:33:37;11.00;1.00
37678;DHT22;23517;50.390;8.616;2024-03-23T08:36:06;10.90;1.00
37678;DHT22;23517;50.390;8.616;2024-03-23T08:38:35;10.80;1.00
37678;DHT22;23517;50.390;8.616;2024-03-23T08:41:03;11.20;1.00
37678;DHT22;23517;50.390;8.616;2024-03-23T08:43:34;12.00;1.00
37678;DHT22;23517;50.390;8.616;2024-03-23T08:46:12;12.00;1.00
37678;DHT22;23517;50.390;8.616;2024-03-23T08:48:40;11.90;1.00
37678;DHT22;23517;50.390;8.616;2024-03-23T08:51:10;12.10;1.00
37678;DHT22;23517;50.390;8.616;2024-03-23T08:53:37;11.50;1.00
37678;DHT22;23517;50.390;8.616;2024-03-23T08:56:05;11.10;1.00
37678;DHT22;23517;50.390;8.616;2024-03-23T08:58:32;11.10;1.00
37678;DHT22;23517;50.390;8.616;2024-03-23T09:01:11;12.10;1.00
37678;DHT22;23517;50.390;8.616;2024-03-23T09:03:39;12.30;1.00
37678;DHT22;23517;50.390;8.616;2024-03-23T09:06:09;12.00;1.00
37678;DHT22;23517;50.390;8.616;2024-03-23T09:08:36;11.70;1.00
37678;DHT22;23517;50.390;8.616;2024-03-23T09:11:21;11.30;1.00
37678;DHT22;23517;50.390;8.616;2024-03-23T09:13:47;11.10;1.00
37678;DHT22;23517;50.390;8.616;2024-03-23T09:16:14;11.70;1.00
37678;DHT22;23517;50.390;8.616;2024-03-23T09:18:40;13.90;1.00
37678;DHT22;23517;50.390;8.616;2024-03-23T09:21:13;13.60;1.00
37678;DHT22;23517;50.390;8.616;2024-03-23T09:23:43;15.10;1.00
37678;DHT22;23517;50.390;8.616;2024-03-23T09:26:10;14.90;1.00
37678;DHT22;23517;50.390;8.616;2024-03-23T09:28:37;14.00;1.00
37678;DHT22;23517;50.390;8.616;2024-03-23T09:31:06;13.00;1.00
37678;DHT22;23517;50.390;8.616;2024-03-23T09:33:36;12.30;1.00
37678;DHT22;23517;50.390;8.616;2024-03-23T09:36:06;11.80;1.00
37678;DHT22;23517;50.390;8.616;2024-03-23T09:38:33;11.30;1.00
37678;DHT22;23517;50.390;8.616;2024-03-23T09:40:59;11.40;1.00
37678;DHT22;23517;50.390;8.616;2024-03-23T09:43:26;13.80;1.00
37678;DHT22;23517;50.390;8.616;2024-03-23T09:45:52;14.30;1.00
37678;DHT22;23517;50.390;8.616;2024-03-23T09:48:20;13.80;1.00
37678;DHT22;23517;50.390;8.616;2024-03-23T09:50:46;13.10;1.00
37678;DHT22;23517;50.390;8.616;2024-03-23T09:53:13;12.80;1.00
37678;DHT22;23517;50.390;8.616;2024-03-23T09:55:41;12.40;1.00
37678;DHT22;23517;50.390;8.616;2024-03-23T09:58:08;11.70;1.00
37678;DHT22;23517;50.390;8.616;2024-03-23T10:00:38;11.30;1.00
37678;DHT22;23517;50.390;8.616;2024-03-23T10:03:05;11.00;1.00
37678;DHT22;23517;50.390;8.616;2024-03-23T10:05:33;10.20;1.00
37678;DHT22;23517;50.390;8.616;2024-03-23T10:10:40;13.40;1.00
37678;DHT22;23517;50.390;8.616;2024-03-23T10:13:06;16.50;1.00
37678;DHT22;23517;50.390;8.616;2024-03-23T10:15:35;16.10;1.00
37678;DHT22;23517;50.390;8.616;2024-03-23T10:18:19;15.20;1.00
37678;DHT22;23517;50.390;8.616;2024-03-23T10:20:50;14.10;1.00
37678;DHT22;23517;50.390;8.616;2024-03-23T10:23:39;13.00;1.00
37678;DHT22;23517;50.390;8.616;2024-03-23T10:26:24;11.50;1.00
37678;DHT22;23517;50.390;8.616;2024-03-23T10:28:59;10.50;1.00
37678;DHT22;23517;50.390;8.616;2024-03-23T10:31:31;9.80;1.00
37678;DHT22;23517;50.390;8.616;2024-03-23T10:33:57;9.20;1.00
37678;DHT22;23517;50.390;8.616;2024-03-23T10:36:24;8.80;1.00
37678;DHT22;23517;50.390;8.616;2024-03-23T10:38:52;8.40;1.00
37678;DHT22;23517;50.390;8.616;2024-03-23T10:41:21;8.40;1.00
37678;DHT22;23517;50.390;8.616;2024-03-23T10:43:48;8.60;1.00
37678;DHT22;23517;50.390;8.616;2024-03-23T10:46:16;8.70;1.00
37678;DHT22;23517;50.390;8.616;2024-03-23T10:48:42;8.80;1.00
37678;DHT22;23517;50.390;8.616;2024-03-23T10:51:10;9.10;1.00
37678;DHT22;23517;50.390;8.616;2024-03-23T10:53:37;9.60;1.00
37678;DHT22;23517;50.390;8.616;2024-03-23T10:56:06;10.10;1.00
37678;DHT22;23517;50.390;8.616;2024-03-23T11:01:12;11.20;1.00
37678;DHT22;23517;50.390;8.616;2024-03-23T11:03:39;11.70;1.00
37678;DHT22;23517;50.390;8.616;2024-03-23T11:06:10;12.20;1.00
37678;DHT22;23517;50.390;8.616;2024-03-23T11:08:36;12.30;1.00
37678;DHT22;23517;50.390;8.616;2024-03-23T11:11:22;12.20;1.00
37678;DHT22;23517;50.390;8.616;2024-03-23T11:13:51;12.20;1.00
37678;DHT22;23517;50.390;8.616;2024-03-23T11:16:26;11.90;1.00
37678;DHT22;23517;50.390;8.616;2024-03-23T11:22:01;11.80;1.00
37678;DHT22;23517;50.390;8.616;2024-03-23T11:24:27;12.30;1.00
37678;DHT22;23517;50.390;8.616;2024-03-23T11:26:53;12.90;1.00
37678;DHT22;23517;50.390;8.616;2024-03-23T11:29:20;13.10;1.00
37678;DHT22;23517;50.390;8.616;2024-03-23T11:31:51;13.30;1.00
37678;DHT22;23517;50.390;8.616;2024-03-23T11:34:21;13.10;1.00
37678;DHT22;23517;50.390;8.616;2024-03-23T11:36:50;13.00;1.00
37678;DHT22;23517;50.390;8.616;2024-03-23T11:39:17;13.10;1.00
37678;DHT22;23517;50.390;8.616;2024-03-23T11:44:21;13.60;1.00
37678;DHT22;23517;50.390;8.616;2024-03-23T11:46:49;13.80;1.00
37678;DHT22;23517;50.390;8.616;2024-03-23T11:49:27;13.30;1.00
37678;DHT22;23517;50.390;8.616;2024-03-23T11:51:56;13.00;1.00
37678;DHT22;23517;50.390;8.616;2024-03-23T11:54:23;13.00;1.00
37678;DHT22;23517;50.390;8.616;2024-03-23T11:56:56;12.80;1.00
37678;DHT22;23517;50.390;8.616;2024-03-23T11:59:37;12.20;1.00
37678;DHT22;23517;50.390;8.616;2024-03-23T12:02:11;11.90;1.00
37678;DHT22;23517;50.390;8.616;2024-03-23T12:04:42;11.90;1.00
37678;DHT22;23517;50.390;8.616;2024-03-23T12:09:37;12.30;1.00
37678;DHT22;23517;50.390;8.616;2024-03-23T12:12:18;12.80;1.00
37678;DHT22;23517;50.390;8.616;2024-03-23T12:14:45;13.00;1.00
37678;DHT22;23517;50.390;8.616;2024-03-23T12:17:26;12.80;1.00
37678;DHT22;23517;50.390;8.616;2024-03-23T12:19:52;12.20;1.00
37678;DHT22;23517;50.390;8.616;2024-03-23T12:22:22;11.90;1.00
37678;DHT22;23517;50.390;8.616;2024-03-23T12:24:49;11.20;1.00
37678;DHT22;23517;50.390;8.616;2024-03-23T12:27:15;11.20;1.00
37678;DHT22;23517;50.390;8.616;2024-03-23T12:29:45;11.60;1.00
37678;DHT22;23517;50.390;8.616;2024-03-23T12:32:13;12.00;1.00
37678;DHT22;23517;50.390;8.616;2024-03-23T12:34:39;12.20;1.00
37678;DHT22;23517;50.390;8.616;2024-03-23T12:37:05;12.10;1.00
37678;DHT22;23517;50.390;8.616;2024-03-23T12:39:34;11.80;1.00
37678;DHT22;23517;50.390;8.616;2024-03-23T12:42:03;11.40;1.00
37678;DHT22;23517;50.390;8.616;2024-03-23T12:44:29;10.70;1.00
37678;DHT22;23517;50.390;8.616;2024-03-23T12:46:55;10.30;1.00
37678;DHT22;23517;50.390;8.616;2024-03-23T12:49:21;9.90;1.00
37678;DHT22;23517;50.390;8.616;2024-03-23T12:51:54;9.60;1.00
37678;DHT22;23517;50.390;8.616;2024-03-23T12:54:21;9.20;1.00
37678;DHT22;23517;50.390;8.616;2024-03-23T12:56:47;9.00;1.00
37678;DHT22;23517;50.390;8.616;2024-03-23T12:59:14;8.90;1.00
37678;DHT22;23517;50.390;8.616;2024-03-23T13:01:40;8.90;1.00
37678;DHT22;23517;50.390;8.616;2024-03-23T13:04:06;9.00;1.00
37678;DHT22;23517;50.390;8.616;2024-03-23T13:06:32;9.10;1.00
37678;DHT22;23517;50.390;8.616;2024-03-23T13:09:03;9.10;1.00
37678;DHT22;23517;50.390;8.616;2024-03-23T13:11:30;9.00;1.00
37678;DHT22;23517;50.390;8.616;2024-03-23T13:13:56;8.80;1.00
37678;DHT22;23517;50.390;8.616;2024-03-23T13:16:22;8.60;1.00
37678;DHT22;23517;50.390;8.616;2024-03-23T13:18:49;8.50;1.00
37678;DHT22;23517;50.390;8.616;2024-03-23T13:21:15;8.40;11.60
37678;DHT22;23517;50.390;8.616;2024-03-23T13:23:42;8.30;1.00
37678;DHT22;23517;50.390;8.616;2024-03-23T13:26:09;8.10;1.00
37678;DHT22;23517;50.390;8.616;2024-03-23T13:28:35;8.00;25.20
37678;DHT22;23517;50.390;8.616;2024-03-23T13:31:01;7.90;85.50
37678;DHT22;23517;50.390;8.616;2024-03-23T13:33:30;7.90;99.90
37678;DHT22;23517;50.390;8.616;2024-03-23T13:35:58;7.90;99.90
37678;DHT22;23517;50.390;8.616;2024-03-23T13:38:26;7.80;99.90
37678;DHT22;23517;50.390;8.616;2024-03-23T13:40:52;7.80;99.90
37678;DHT22;23517;50.390;8.616;2024-03-23T13:43:26;7.90;99.90
37678;DHT22;23517;50.390;8.616;2024-03-23T13:45:55;8.10;99.90
37678;DHT22;23517;50.390;8.616;2024-03-23T13:48:23;8.70;99.90
37678;DHT22;23517;50.390;8.616;2024-03-23T13:51:00;9.30;99.90
37678;DHT22;23517;50.390;8.616;2024-03-23T13:53:26;9.50;99.90
37678;DHT22;23517;50.390;8.616;2024-03-23T13:55:53;9.20;99.90
37678;DHT22;23517;50.390;8.616;2024-03-23T13:58:19;9.20;99.90
37678;DHT22;23517;50.390;8.616;2024-03-23T14:00:47;9.10;99.90
37678;DHT22;23517;50.390;8.616;2024-03-23T14:03:16;9.10;99.90
37678;DHT22;23517;50.390;8.616;2024-03-23T14:05:45;8.90;99.90
37678;DHT22;23517;50.390;8.616;2024-03-23T14:08:13;9.10;99.90
37678;DHT22;23517;50.390;8.616;2024-03-23T14:10:42;9.10;99.90
37678;DHT22;23517;50.390;8.616;2024-03-23T14:13:09;9.20;99.90
37678;DHT22;23517;50.390;8.616;2024-03-23T14:15:36;9.20;99.90
37678;DHT22;23517;50.390;8.616;2024-03-23T14:18:02;9.30;99.90
37678;DHT22;23517;50.390;8.616;2024-03-23T14:20:29;9.40;99.90
37678;DHT22;23517;50.390;8.616;2024-03-23T14:22:54;9.30;99.90
37678;DHT22;23517;50.390;8.616;2024-03-23T14:25:21;9.20;99.90
37678;DHT22;23517;50.390;8.616;2024-03-23T14:27:51;9.30;99.90
37678;DHT22;23517;50.390;8.616;2024-03-23T14:30:17;9.30;85.20
37678;DHT22;23517;50.390;8.616;2024-03-23T14:32:44;9.60;95.40
37678;DHT22;23517;50.390;8.616;2024-03-23T14:35:14;9.90;83.20
37678;DHT22;23517;50.390;8.616;2024-03-23T14:37:41;9.90;66.00
37678;DHT22;23517;50.390;8.616;2024-03-23T14:40:08;9.70;55.70
37678;DHT22;23517;50.390;8.616;2024-03-23T14:42:34;9.40;49.00
37678;DHT22;23517;50.390;8.616;2024-03-23T14:45:00;9.40;65.40
37678;DHT22;23517;50.390;8.616;2024-03-23T14:47:26;9.30;70.60
37678;DHT22;23517;50.390;8.616;2024-03-23T14:49:53;9.30;66.60
37678;DHT22;23517;50.390;8.616;2024-03-23T14:52:20;9.20;61.70
37678;DHT22;23517;50.390;8.616;2024-03-23T14:54:46;9.20;52.20
37678;DHT22;23517;50.390;8.616;2024-03-23T14:57:12;9.20;15.00
37678;DHT22;23517;50.390;8.616;2024-03-23T14:59:38;9.10;5.50
37678;DHT22;23517;50.390;8.616;2024-03-23T15:02:09;9.00;1.00
37678;DHT22;23517;50.390;8.616;2024-03-23T15:04:35;9.10;1.00
37678;DHT22;23517;50.390;8.616;2024-03-23T15:07:02;9.00;1.00
37678;DHT22;23517;50.390;8.616;2024-03-23T15:09:28;8.90;1.00
37678;DHT22;23517;50.390;8.616;2024-03-23T15:11:54;8.80;1.00
37678;DHT22;23517;50.390;8.616;2024-03-23T15:14:23;8.70;1.00
37678;DHT22;23517;50.390;8.616;2024-03-23T15:16:50;8.70;1.00
37678;DHT22;23517;50.390;8.616;2024-03-23T15:19:17;8.60;1.00
37678;DHT22;23517;50.390;8.616;2024-03-23T15:21:44;8.40;12.00
37678;DHT22;23517;50.390;8.616;2024-03-23T15:24:10;8.30;46.10
37678;DHT22;23517;50.390;8.616;2024-03-23T15:26:39;8.20;68.10
37678;DHT22;23517;50.390;8.616;2024-03-23T15:29:05;8.20;90.20
37678;DHT22;23517;50.390;8.616;2024-03-23T15:31:43;8.20;65.20
37678;DHT22;23517;50.390;8.616;2024-03-23T15:34:11;8.20;67.00
37678;DHT22;23517;50.390;8.616;2024-03-23T15:36:38;8.20;79.50
37678;DHT22;23517;50.390;8.616;2024-03-23T15:39:06;8.20;92.20
37678;DHT22;23517;50.390;8.616;2024-03-23T15:41:32;8.20;99.70
37678;DHT22;23517;50.390;8.616;2024-03-23T15:43:59;8.20;76.00
37678;DHT22;23517;50.390;8.616;2024-03-23T15:46:25;8.30;74.60
37678;DHT22;23517;50.390;8.616;2024-03-23T15:48:51;8.30;75.70
37678;DHT22;23517;50.390;8.616;2024-03-23T15:51:17;8.30;79.00
37678;DHT22;23517;50.390;8.616;2024-03-23T15:53:45;8.30;69.30
37678;DHT22;23517;50.390;8.616;2024-03-23T15:56:12;8.20;92.90
37678;DHT22;23517;50.390;8.616;2024-03-23T15:58:38;8.20;99.90
37678;DHT22;23517;50.390;8.616;2024-03-23T16:01:05;8.10;99.90
37678;DHT22;23517;50.390;8.616;2024-03-23T16:03:34;8.10;99.90
37678;DHT22;23517;50.390;8.616;2024-03-23T16:06:02;8.20;99.90
37678;DHT22;23517;50.390;8.616;2024-03-23T16:08:31;8.30;99.90
37678;DHT22;23517;50.390;8.616;2024-03-23T16:11:02;8.40;89.20
37678;DHT22;23517;50.390;8.616;2024-03-23T16:13:33;8.60;63.40
37678;DHT22;23517;50.390;8.616;2024-03-23T16:16:01;8.80;41.70
37678;DHT22;23517;50.390;8.616;2024-03-23T16:18:29;9.00;17.10
37678;DHT22;23517;50.390;8.616;2024-03-23T16:21:00;8.70;4.20
37678;DHT22;23517;50.390;8.616;2024-03-23T16:23:28;8.40;12.70
37678;DHT22;23517;50.390;8.616;2024-03-23T16:25:57;8.20;28.70
37678;DHT22;23517;50.390;8.616;2024-03-23T16:28:24;8.10;15.40
37678;DHT22;23517;50.390;8.616;2024-03-23T16:30:58;7.90;17.40
37678;DHT22;23517;50.390;8.616;2024-03-23T16:33:25;7.60;41.90
37678;DHT22;23517;50.390;8.616;2024-03-23T16:38:32;7.50;57.80
37678;DHT22;23517;50.390;8.616;2024-03-23T16:41:05;7.40;35.70
37678;DHT22;23517;50.390;8.616;2024-03-23T16:43:34;7.50;28.20
37678;DHT22;23517;50.390;8.616;2024-03-23T16:46:09;7.70;25.80
37678;DHT22;23517;50.390;8.616;2024-03-23T16:48:38;7.80;7.10
37678;DHT22;23517;50.390;8.616;2024-03-23T16:51:05;7.70;9.40
37678;DHT22;23517;50.390;8.616;2024-03-23T16:53:32;7.70;10.90
37678;DHT22;23517;50.390;8.616;2024-03-23T16:56:05;7.80;26.20
37678;DHT22;23517;50.390;8.616;2024-03-23T16:58:37;7.70;44.00
37678;DHT22;23517;50.390;8.616;2024-03-23T17:01:11;7.60;68.60
37678;DHT22;23517;50.390;8.616;2024-03-23T17:03:48;7.40;99.90